createdAt,value
2022-09-15T00:00:27.389Z,16.90
2022-09-15T00:02:54.195Z,17.00
2022-09-15T00:05:20.961Z,17.00
2022-09-15T00:07:47.603Z,17.00
2022-09-15T00:10:14.673Z,17.00
2022-09-15T00:12:41.670Z,16.90
2022-09-15T00:15:08.642Z,16.90
2022-09-15T00:17:35.202Z,16.90
2022-09-15T00:20:02.297Z,16.90
2022-09-15T00:22:29.001Z,16.90
2022-09-15T00:24:55.539Z,16.90
2022-09-15T00:27:22.092Z,16.90
2022-09-15T00:29:48.835Z,16.90
2022-09-15T00:32:15.403Z,16.90
2022-09-15T00:34:42.027Z,16.80
2022-09-15T00:37:08.608Z,16.90
2022-09-15T00:39:35.308Z,16.80
2022-09-15T00:42:04.168Z,16.80
2022-09-15T00:44:36.896Z,16.80
2022-09-15T00:47:19.971Z,16.70
2022-09-15T00:49:49.621Z,16.80
2022-09-15T00:52:26.404Z,16.70
2022-09-15T00:55:01.341Z,16.70
2022-09-15T00:57:50.811Z,16.70
2022-09-15T01:00:20.699Z,16.70
2022-09-15T01:02:49.263Z,16.70
2022-09-15T01:05:20.795Z,16.70
2022-09-15T01:07:59.144Z,16.70
2022-09-15T01:10:28.042Z,16.60
2022-09-15T01:13:01.191Z,16.60
2022-09-15T01:15:39.433Z,16.60
2022-09-15T01:18:06.027Z,16.50
2022-09-15T01:20:51.502Z,16.50
2022-09-15T01:23:42.838Z,16.50
2022-09-15T01:26:56.985Z,16.50
2022-09-15T01:29:38.448Z,16.40
2022-09-15T01:32:47.444Z,16.50
2022-09-15T01:35:42.558Z,16.40
2022-09-15T01:38:30.595Z,16.40
2022-09-15T01:41:07.774Z,16.30
2022-09-15T01:43:39.169Z,16.30
2022-09-15T01:46:07.218Z,16.30
2022-09-15T01:48:35.793Z,16.30
2022-09-15T01:51:03.596Z,16.20
2022-09-15T01:53:30.353Z,16.20
2022-09-15T01:56:02.447Z,16.20
2022-09-15T01:58:29.183Z,16.20
2022-09-15T02:01:18.490Z,16.20
2022-09-15T02:03:47.963Z,16.20
2022-09-15T02:06:44.869Z,16.20
2022-09-15T02:09:17.306Z,16.10
2022-09-15T02:11:57.812Z,16.10
2022-09-15T02:14:52.681Z,16.10
2022-09-15T02:17:21.967Z,16.10
2022-09-15T02:19:52.657Z,16.00
2022-09-15T02:22:28.736Z,16.00
2022-09-15T02:25:08.358Z,16.00
2022-09-15T02:27:39.587Z,16.00
2022-09-15T02:30:12.378Z,16.00
2022-09-15T02:32:47.205Z,16.00
2022-09-15T02:35:15.154Z,15.90
2022-09-15T02:37:43.016Z,15.90
2022-09-15T02:40:10.291Z,15.90
2022-09-15T02:42:37.052Z,15.90
2022-09-15T02:45:04.334Z,15.90
2022-09-15T02:47:31.955Z,15.80
2022-09-15T02:49:58.549Z,15.80
2022-09-15T02:52:26.108Z,15.80
2022-09-15T02:54:53.393Z,15.80
2022-09-15T02:57:20.867Z,15.80
2022-09-15T03:00:05.800Z,15.80
2022-09-15T03:02:32.546Z,15.80
2022-09-15T03:04:59.165Z,15.70
2022-09-15T03:07:25.996Z,15.70
2022-09-15T03:09:52.597Z,15.70
2022-09-15T03:12:19.160Z,15.70
2022-09-15T03:14:46.885Z,15.70
2022-09-15T03:17:13.496Z,15.70
2022-09-15T03:19:40.167Z,15.70
2022-09-15T03:22:07.060Z,15.70
2022-09-15T03:24:33.662Z,15.70
2022-09-15T03:27:00.282Z,15.70
2022-09-15T03:29:26.972Z,15.70
2022-09-15T03:31:54.058Z,15.70
2022-09-15T03:34:20.838Z,15.70
2022-09-15T03:36:47.584Z,15.70
2022-09-15T03:39:14.658Z,15.70
2022-09-15T03:41:41.208Z,15.70
2022-09-15T03:44:07.808Z,15.70
2022-09-15T03:46:35.318Z,15.80
2022-09-15T03:49:01.881Z,15.80
2022-09-15T03:51:28.432Z,15.80
2022-09-15T03:53:55.620Z,15.80
2022-09-15T03:56:22.246Z,15.80
2022-09-15T03:58:48.985Z,15.80
2022-09-15T04:01:15.836Z,15.80
2022-09-15T04:03:47.623Z,15.80
2022-09-15T04:06:17.733Z,15.90
2022-09-15T04:08:44.454Z,15.80
2022-09-15T04:11:13.453Z,15.80
2022-09-15T04:13:41.806Z,15.80
2022-09-15T04:16:12.075Z,15.90
2022-09-15T04:18:38.917Z,15.90
2022-09-15T04:21:08.239Z,15.90
2022-09-15T04:23:35.269Z,15.90
2022-09-15T04:26:05.947Z,15.90
2022-09-15T04:28:35.005Z,15.90
2022-09-15T04:31:08.183Z,15.90
2022-09-15T04:33:35.773Z,15.90
2022-09-15T04:36:05.588Z,16.00
2022-09-15T04:38:32.274Z,16.00
2022-09-15T04:40:59.232Z,15.90
2022-09-15T04:43:27.029Z,16.00
2022-09-15T04:45:54.172Z,16.00
2022-09-15T04:48:22.102Z,16.00
2022-09-15T04:50:49.280Z,16.00
2022-09-15T04:53:16.095Z,16.00
2022-09-15T04:55:43.127Z,16.00
2022-09-15T04:58:09.692Z,16.00
2022-09-15T05:00:43.400Z,16.00
2022-09-15T05:03:14.136Z,16.00
2022-09-15T05:05:41.319Z,16.00
2022-09-15T05:08:08.563Z,16.00
2022-09-15T05:10:35.416Z,16.00
2022-09-15T05:13:02.070Z,16.00
2022-09-15T05:15:28.627Z,16.00
2022-09-15T05:17:55.185Z,16.00
2022-09-15T05:20:22.474Z,16.10
2022-09-15T05:22:52.313Z,16.10
2022-09-15T05:25:19.064Z,16.10
2022-09-15T05:27:45.618Z,16.00
2022-09-15T05:32:59.249Z,16.10
2022-09-15T05:35:25.853Z,16.10
2022-09-15T05:37:52.404Z,16.10
2022-09-15T05:40:21.709Z,16.10
2022-09-15T05:42:48.303Z,16.10
2022-09-15T05:45:14.988Z,16.10
2022-09-15T05:47:41.538Z,16.10
2022-09-15T05:50:08.404Z,16.10
2022-09-15T05:52:35.733Z,16.10
2022-09-15T05:55:02.308Z,16.10
2022-09-15T05:57:28.880Z,16.10
2022-09-15T05:59:55.477Z,16.20
2022-09-15T06:02:22.263Z,16.10
2022-09-15T06:04:51.130Z,16.20
2022-09-15T06:07:17.831Z,16.20
2022-09-15T06:09:46.807Z,16.20
2022-09-15T06:12:13.403Z,16.20
2022-09-15T06:14:39.989Z,16.20
2022-09-15T06:17:06.577Z,16.20
2022-09-15T06:19:33.377Z,16.20
2022-09-15T06:22:00.311Z,16.20
2022-09-15T06:24:26.943Z,16.20
2022-09-15T06:26:53.514Z,16.30
2022-09-15T06:29:20.108Z,16.30
2022-09-15T06:31:46.725Z,16.40
2022-09-15T06:34:13.297Z,16.40
2022-09-15T06:36:40.269Z,16.40
2022-09-15T06:39:07.043Z,16.40
2022-09-15T06:41:52.946Z,16.40
2022-09-15T06:44:20.857Z,16.40
2022-09-15T06:46:48.070Z,16.50
2022-09-15T06:49:14.840Z,16.50
2022-09-15T06:51:42.006Z,16.60
2022-09-15T06:54:08.737Z,16.60
2022-09-15T06:56:38.087Z,16.60
2022-09-15T06:59:05.188Z,16.60
2022-09-15T07:01:32.577Z,16.60
2022-09-15T07:04:01.199Z,16.60
2022-09-15T07:06:29.489Z,16.70
2022-09-15T07:08:56.639Z,16.70
2022-09-15T07:11:23.221Z,16.70
2022-09-15T07:13:50.067Z,16.70
2022-09-15T07:16:18.896Z,16.70
2022-09-15T07:18:47.081Z,16.80
2022-09-15T07:21:15.857Z,16.80
2022-09-15T07:23:43.317Z,16.90
2022-09-15T07:26:09.868Z,16.90
2022-09-15T07:28:37.104Z,16.90
2022-09-15T07:31:08.822Z,16.90
2022-09-15T07:33:36.655Z,17.00
2022-09-15T07:36:05.921Z,17.00
2022-09-15T07:38:33.302Z,17.00
2022-09-15T07:41:04.897Z,17.10
2022-09-15T07:43:31.741Z,17.10
2022-09-15T07:45:59.309Z,17.10
2022-09-15T07:48:26.680Z,17.20
2022-09-15T07:50:53.371Z,17.20
2022-09-15T07:53:20.627Z,17.20
2022-09-15T07:55:53.296Z,17.20
2022-09-15T07:58:20.076Z,17.30
2022-09-15T08:00:47.505Z,17.30
2022-09-15T08:03:15.365Z,17.40
2022-09-15T08:05:45.598Z,17.40
2022-09-15T08:08:12.526Z,17.40
2022-09-15T08:10:42.524Z,17.50
2022-09-15T08:13:09.130Z,17.50
2022-09-15T08:15:38.703Z,17.60
2022-09-15T08:18:06.190Z,17.60
2022-09-15T08:20:33.377Z,17.70
2022-09-15T08:23:00.093Z,17.70
2022-09-15T08:25:26.672Z,17.70
2022-09-15T08:27:54.501Z,17.80
2022-09-15T08:30:21.908Z,17.90
2022-09-15T08:32:49.547Z,17.90
2022-09-15T08:35:17.208Z,17.90
2022-09-15T08:37:43.801Z,18.00
2022-09-15T08:40:23.575Z,18.00
2022-09-15T08:42:55.176Z,18.10
2022-09-15T08:45:27.520Z,18.10
2022-09-15T08:47:59.894Z,18.10
2022-09-15T08:50:35.732Z,18.20
2022-09-15T08:53:17.781Z,18.20
2022-09-15T08:55:52.248Z,18.20
2022-09-15T08:58:24.639Z,18.20
2022-09-15T09:01:15.531Z,18.30
2022-09-15T09:04:00.436Z,18.30
2022-09-15T09:07:07.930Z,18.40
2022-09-15T09:09:56.754Z,18.40
2022-09-15T09:12:50.324Z,18.50
2022-09-15T09:15:22.678Z,18.50
2022-09-15T09:18:20.433Z,18.60
2022-09-15T09:20:59.993Z,18.60
2022-09-15T09:23:29.620Z,18.70
2022-09-15T09:25:57.469Z,18.80
2022-09-15T09:28:39.678Z,18.90
2022-09-15T09:31:13.145Z,19.00
2022-09-15T09:33:48.161Z,19.10
2022-09-15T09:36:15.063Z,19.10
2022-09-15T09:38:45.101Z,19.20
2022-09-15T09:41:13.807Z,19.30
2022-09-15T09:43:46.192Z,19.30
2022-09-15T09:46:16.205Z,19.40
2022-09-15T09:49:12.783Z,19.50
2022-09-15T09:51:51.731Z,19.60
2022-09-15T09:54:20.563Z,19.70
2022-09-15T09:56:51.703Z,19.90
2022-09-15T09:59:42.205Z,20.00
2022-09-15T10:02:11.761Z,20.10
2022-09-15T10:04:39.532Z,20.20
2022-09-15T10:07:07.153Z,20.30
2022-09-15T10:09:34.086Z,20.40
2022-09-15T10:12:04.118Z,20.60
2022-09-15T10:14:45.391Z,20.70
2022-09-15T10:17:18.649Z,20.70
2022-09-15T10:19:57.457Z,20.80
2022-09-15T10:22:39.424Z,21.00
2022-09-15T10:25:21.209Z,21.10
2022-09-15T10:28:24.017Z,21.20
2022-09-15T10:31:10.821Z,21.20
2022-09-15T10:33:43.169Z,21.30
2022-09-15T10:36:18.653Z,21.40
2022-09-15T10:38:59.974Z,21.50
2022-09-15T10:41:31.896Z,21.60
2022-09-15T10:44:23.315Z,21.60
2022-09-15T10:47:05.039Z,21.70
2022-09-15T10:50:10.656Z,21.80
2022-09-15T10:52:53.416Z,21.90
2022-09-15T10:55:57.991Z,22.00
2022-09-15T10:58:31.018Z,22.10
2022-09-15T11:01:23.653Z,22.20
2022-09-15T11:03:58.788Z,22.30
2022-09-15T11:07:02.435Z,22.40
2022-09-15T11:09:34.545Z,22.50
2022-09-15T11:12:25.947Z,22.60
2022-09-15T11:15:07.487Z,22.70
2022-09-15T11:17:59.983Z,22.70
2022-09-15T11:20:45.468Z,22.90
2022-09-15T11:23:33.135Z,22.90
2022-09-15T11:26:29.662Z,23.00
2022-09-15T11:29:31.536Z,23.00
2022-09-15T11:32:10.671Z,23.10
2022-09-15T11:35:02.568Z,23.20
2022-09-15T11:40:24.819Z,23.20
2022-09-15T11:43:00.893Z,23.30
2022-09-15T11:45:38.059Z,23.30
2022-09-15T11:48:28.553Z,23.40
2022-09-15T11:50:59.453Z,23.40
2022-09-15T11:53:33.589Z,23.50
2022-09-15T11:56:18.344Z,23.50
2022-09-15T11:59:06.235Z,23.50
2022-09-15T12:01:43.537Z,23.60
2022-09-15T12:04:23.508Z,23.70
2022-09-15T12:07:05.180Z,23.60
2022-09-15T12:09:32.976Z,23.70
2022-09-15T12:12:09.007Z,23.70
2022-09-15T12:14:39.548Z,23.70
2022-09-15T12:17:09.712Z,23.80
2022-09-15T12:19:44.036Z,23.70
2022-09-15T12:22:30.757Z,23.80
2022-09-15T12:25:01.635Z,23.70
2022-09-15T12:27:29.025Z,23.70
2022-09-15T12:29:57.968Z,23.70
2022-09-15T12:32:29.562Z,23.60
2022-09-15T12:35:11.406Z,23.60
2022-09-15T12:37:46.185Z,23.60
2022-09-15T12:40:32.988Z,23.60
2022-09-15T12:43:17.090Z,23.50
2022-09-15T12:45:57.082Z,23.50
2022-09-15T12:48:29.081Z,23.40
2022-09-15T12:51:07.176Z,23.40
2022-09-15T12:53:40.844Z,23.30
2022-09-15T12:56:20.883Z,23.30
2022-09-15T12:58:49.320Z,23.30
2022-09-15T13:01:19.320Z,23.30
2022-09-15T13:03:46.381Z,23.20
2022-09-15T13:06:19.308Z,23.20
2022-09-15T13:08:53.743Z,23.20
2022-09-15T13:11:37.926Z,23.20
2022-09-15T13:14:06.678Z,23.20
2022-09-15T13:16:46.424Z,23.20
2022-09-15T13:19:41.593Z,23.20
2022-09-15T13:22:11.264Z,23.20
2022-09-15T13:25:01.687Z,23.20
2022-09-15T13:27:36.872Z,23.20
2022-09-15T13:30:09.952Z,23.10
2022-09-15T13:32:56.100Z,23.10
2022-09-15T13:36:00.438Z,23.10
2022-09-15T13:39:15.855Z,23.10
2022-09-15T13:42:13.096Z,23.10
2022-09-15T13:45:17.860Z,23.00
2022-09-15T13:47:50.812Z,23.00
2022-09-15T13:50:25.637Z,22.90
2022-09-15T13:53:14.433Z,22.80
2022-09-15T13:55:45.458Z,22.80
2022-09-15T14:01:12.764Z,22.70
2022-09-15T14:03:42.322Z,22.60
2022-09-15T14:06:16.911Z,22.60
2022-09-15T14:08:48.293Z,22.50
2022-09-15T14:11:21.408Z,22.50
2022-09-15T14:13:49.948Z,22.40
2022-09-15T14:16:27.705Z,22.40
2022-09-15T14:18:57.541Z,22.30
2022-09-15T14:21:29.374Z,22.20
2022-09-15T14:23:59.023Z,22.20
2022-09-15T14:26:28.835Z,22.10
2022-09-15T14:28:58.671Z,22.10
2022-09-15T14:31:41.024Z,22.00
2022-09-15T14:34:18.404Z,21.90
2022-09-15T14:36:46.229Z,21.80
2022-09-15T14:39:15.843Z,21.80
2022-09-15T14:41:42.982Z,21.70
2022-09-15T14:47:12.689Z,21.60
2022-09-15T14:49:39.376Z,21.60
2022-09-15T14:52:24.308Z,21.50
2022-09-15T14:54:56.144Z,21.50
2022-09-15T14:57:28.808Z,21.40
2022-09-15T15:00:07.239Z,21.30
2022-09-15T15:03:01.105Z,21.30
2022-09-15T15:05:37.640Z,21.30
2022-09-15T15:08:09.106Z,21.30
2022-09-15T15:10:36.785Z,21.20
2022-09-15T15:13:09.451Z,21.20
2022-09-15T15:15:37.971Z,21.20
2022-09-15T15:18:30.903Z,21.20
2022-09-15T15:20:58.826Z,21.20
2022-09-15T15:23:26.172Z,21.20
2022-09-15T15:25:53.751Z,21.10
2022-09-15T15:28:34.760Z,21.10
2022-09-15T15:31:16.606Z,21.10
2022-09-15T15:33:53.386Z,21.00
2022-09-15T15:36:22.348Z,21.00
2022-09-15T15:39:00.259Z,21.00
2022-09-15T15:41:40.796Z,20.90
2022-09-15T15:44:26.475Z,20.80
2022-09-15T15:46:57.154Z,20.80
2022-09-15T15:49:29.217Z,20.70
2022-09-15T15:51:57.673Z,20.70
2022-09-15T15:54:25.372Z,20.70
2022-09-15T15:56:52.990Z,20.60
2022-09-15T15:59:20.195Z,20.60
2022-09-15T16:01:55.503Z,20.60
2022-09-15T16:04:22.144Z,20.50
2022-09-15T16:06:48.963Z,20.50
2022-09-15T16:09:17.328Z,20.40
2022-09-15T16:11:43.982Z,20.50
2022-09-15T16:14:14.169Z,20.40
2022-09-15T16:16:41.009Z,20.40
2022-09-15T16:19:08.474Z,20.30
2022-09-15T16:21:39.480Z,20.30
2022-09-15T16:24:10.378Z,20.30
2022-09-15T16:26:37.704Z,20.20
2022-09-15T16:29:04.256Z,20.20
2022-09-15T16:31:32.266Z,20.20
2022-09-15T16:33:58.991Z,20.20
2022-09-15T16:36:26.381Z,20.20
2022-09-15T16:38:53.207Z,20.20
2022-09-15T16:41:25.709Z,20.10
2022-09-15T16:43:59.196Z,20.10
2022-09-15T16:46:25.891Z,20.10
2022-09-15T16:48:52.493Z,20.10
2022-09-15T16:51:29.759Z,20.10
2022-09-15T16:53:58.038Z,20.00
2022-09-15T16:56:24.895Z,20.10
2022-09-15T16:58:59.586Z,20.00
2022-09-15T17:01:27.018Z,20.00
2022-09-15T17:03:53.814Z,20.00
2022-09-15T17:06:21.913Z,19.90
2022-09-15T17:08:48.555Z,19.90
2022-09-15T17:11:22.132Z,19.90
2022-09-15T17:13:48.687Z,19.90
2022-09-15T17:16:19.174Z,19.80
2022-09-15T17:18:46.995Z,19.80
2022-09-15T17:21:16.382Z,19.70
2022-09-15T17:23:48.091Z,19.70
2022-09-15T17:26:19.845Z,19.70
2022-09-15T17:28:47.033Z,19.70
2022-09-15T17:31:19.279Z,19.60
2022-09-15T17:33:46.673Z,19.60
2022-09-15T17:36:13.513Z,19.60
2022-09-15T17:38:41.084Z,19.50
2022-09-15T17:41:16.650Z,19.50
2022-09-15T17:43:43.516Z,19.40
2022-09-15T17:46:10.645Z,19.40
2022-09-15T17:48:39.219Z,19.40
2022-09-15T17:51:07.918Z,19.40
2022-09-15T17:53:34.624Z,19.30
2022-09-15T17:56:01.585Z,19.30
2022-09-15T17:58:31.207Z,19.20
2022-09-15T18:00:58.675Z,19.20
2022-09-15T18:03:28.679Z,19.20
2022-09-15T18:05:58.219Z,19.10
2022-09-15T18:08:25.678Z,19.10
2022-09-15T18:10:52.943Z,19.10
2022-09-15T18:13:23.544Z,19.10
2022-09-15T18:15:50.570Z,19.00
2022-09-15T18:18:22.512Z,18.90
2022-09-15T18:20:49.787Z,18.90
2022-09-15T18:23:25.588Z,18.90
2022-09-15T18:25:52.853Z,18.80
2022-09-15T18:28:19.651Z,18.80
2022-09-15T18:30:48.271Z,18.70
2022-09-15T18:33:16.559Z,18.70
2022-09-15T18:35:43.570Z,18.60
2022-09-15T18:38:11.243Z,18.60
2022-09-15T18:40:38.392Z,18.60
2022-09-15T18:43:05.533Z,18.60
2022-09-15T18:45:32.219Z,18.50
2022-09-15T18:47:59.011Z,18.50
2022-09-15T18:50:25.626Z,18.40
2022-09-15T18:52:52.959Z,18.40
2022-09-15T18:55:21.661Z,18.30
2022-09-15T18:57:48.769Z,18.30
2022-09-15T19:00:21.841Z,18.30
2022-09-15T19:02:48.862Z,18.20
2022-09-15T19:05:16.810Z,18.20
2022-09-15T19:07:44.835Z,18.20
2022-09-15T19:10:13.224Z,18.10
2022-09-15T19:12:40.040Z,18.10
2022-09-15T19:15:10.892Z,18.10
2022-09-15T19:17:39.473Z,18.00
2022-09-15T19:20:08.576Z,18.00
2022-09-15T19:22:37.067Z,17.90
2022-09-15T19:25:05.922Z,17.90
2022-09-15T19:27:33.040Z,17.80
2022-09-15T19:30:00.173Z,17.80
2022-09-15T19:32:26.816Z,17.70
2022-09-15T19:34:53.441Z,17.70
2022-09-15T19:37:21.551Z,17.70
2022-09-15T19:39:49.269Z,17.70
2022-09-15T19:42:17.262Z,17.70
2022-09-15T19:44:44.662Z,17.60
2022-09-15T19:47:11.456Z,17.60
2022-09-15T19:49:38.549Z,17.60
2022-09-15T19:52:06.356Z,17.50
2022-09-15T19:54:34.401Z,17.50
2022-09-15T19:57:01.609Z,17.50
2022-09-15T19:59:31.507Z,17.50
2022-09-15T20:01:59.520Z,17.50
2022-09-15T20:04:27.311Z,17.50
2022-09-15T20:06:53.945Z,17.50
2022-09-15T20:09:20.555Z,17.40
2022-09-15T20:11:47.213Z,17.40
2022-09-15T20:14:14.320Z,17.40
2022-09-15T20:16:41.377Z,17.40
2022-09-15T20:19:08.364Z,17.40
2022-09-15T20:21:52.256Z,17.40
2022-09-15T20:24:20.328Z,17.40
2022-09-15T20:26:47.145Z,17.40
2022-09-15T20:29:14.263Z,17.30
2022-09-15T20:31:41.581Z,17.30
2022-09-15T20:34:08.313Z,17.30
2022-09-15T20:36:38.287Z,17.30
2022-09-15T20:39:09.239Z,17.30
2022-09-15T20:41:35.912Z,17.30
2022-09-15T20:44:02.905Z,17.30
2022-09-15T20:46:31.154Z,17.30
2022-09-15T20:48:57.719Z,17.30
2022-09-15T20:51:27.745Z,17.30
2022-09-15T20:53:56.643Z,17.20
2022-09-15T20:56:25.499Z,17.20
2022-09-15T20:58:58.376Z,17.20
2022-09-15T21:01:27.564Z,17.20
2022-09-15T21:03:55.245Z,17.20
2022-09-15T21:06:25.119Z,17.20
2022-09-15T21:08:53.065Z,17.20
2022-09-15T21:11:21.254Z,17.20
2022-09-15T21:13:49.271Z,17.20
2022-09-15T21:16:18.613Z,17.20
2022-09-15T21:18:45.858Z,17.20
2022-09-15T21:21:14.388Z,17.10
2022-09-15T21:23:43.911Z,17.10
2022-09-15T21:26:16.039Z,17.10
2022-09-15T21:28:43.514Z,17.10
2022-09-15T21:31:12.690Z,17.00
2022-09-15T21:33:39.585Z,17.10
2022-09-15T21:36:09.475Z,17.00
2022-09-15T21:38:37.696Z,17.00
2022-09-15T21:41:06.036Z,16.90
2022-09-15T21:43:36.012Z,16.90
2022-09-15T21:46:04.837Z,16.90
2022-09-15T21:48:33.156Z,16.90
2022-09-15T21:51:00.567Z,16.90
2022-09-15T21:53:27.344Z,16.80
2022-09-15T21:55:54.243Z,16.80
2022-09-15T21:58:25.940Z,16.80
2022-09-15T22:00:53.057Z,16.70
2022-09-15T22:03:20.708Z,16.70
2022-09-15T22:05:47.889Z,16.70
2022-09-15T22:08:16.562Z,16.70
2022-09-15T22:10:43.994Z,16.60
2022-09-15T22:13:11.880Z,16.70
2022-09-15T22:15:38.467Z,16.60
2022-09-15T22:18:05.356Z,16.60
2022-09-15T22:20:32.065Z,16.60
2022-09-15T22:23:01.567Z,16.50
2022-09-15T22:25:28.983Z,16.50
2022-09-15T22:27:55.583Z,16.50
2022-09-15T22:30:22.210Z,16.50
2022-09-15T22:32:48.763Z,16.40
2022-09-15T22:35:17.295Z,16.40
2022-09-15T22:37:43.926Z,16.40
2022-09-15T22:40:11.028Z,16.40
2022-09-15T22:42:37.912Z,16.40
2022-09-15T22:45:04.953Z,16.30
2022-09-15T22:47:33.107Z,16.30
2022-09-15T22:49:59.796Z,16.20
2022-09-15T22:52:26.361Z,16.30
2022-09-15T22:54:52.950Z,16.20
2022-09-15T22:57:19.522Z,16.20
2022-09-15T22:59:46.795Z,16.20
2022-09-15T23:02:13.428Z,16.20
2022-09-15T23:04:40.049Z,16.20
2022-09-15T23:07:07.083Z,16.20
2022-09-15T23:09:34.201Z,16.20
2022-09-15T23:12:00.961Z,16.10
2022-09-15T23:14:27.649Z,16.20
2022-09-15T23:16:54.489Z,16.10
2022-09-15T23:19:21.047Z,16.10
2022-09-15T23:21:47.686Z,16.10
2022-09-15T23:24:14.940Z,16.10
2022-09-15T23:26:41.540Z,16.10
2022-09-15T23:29:08.229Z,16.10
2022-09-15T23:31:34.798Z,16.10
2022-09-15T23:34:01.906Z,16.10
2022-09-15T23:36:28.546Z,16.10
2022-09-15T23:38:55.212Z,16.10
2022-09-15T23:41:21.826Z,16.10
2022-09-15T23:43:48.536Z,16.10
2022-09-15T23:46:15.325Z,16.10
2022-09-15T23:48:42.137Z,16.10
2022-09-15T23:51:08.901Z,16.00
2022-09-15T23:53:35.944Z,16.10
2022-09-15T23:56:02.874Z,16.00
2022-09-15T23:58:29.504Z,16.00
